Prince Albert Glass Field
CYPA : now visible

Airfield :











YOU CAN JOIN US ON...

 
LOGIN :

Register | Disclaimer

   EN    FR    IT 

 









Legend :    VFR   Marginal VFR   IFR   Intensive IFR   Very Intensive IFR
Visi :
Ceiling :
>= 8 km
>= 3000ft
5 to 8 km
1000 to 3000 ft
1500m to 5 km
500 to 1000 ft
800 to 1500m
200 to 500 ft
< 800m
< 200 ft
Symbols :   Thunderstorms  Fog  Heavy snow  Heavy precipitations  Wind > 20 kt






- Airport Elevation : 1405 ft
- IATA code : YPA


CYPA - Prince Albert Glass Field

CURRENT METAR :
  • 221310Z 29005KT 5SM -SN BKN012 OVC025 M06/M07 A3034 RMK SC7SC1 SLP307

EXPIRED METARs :
  • 221200Z 33008KT 5SM -SN OVC022 M05/M07 A3032 RMK SC8 SLP297
  • 221112Z 32015KT 6SM -SN OVC022 M05/M07 A3030 RMK SC8 SLP290
  • 221100Z 31010G16KT 10SM -SN OVC013 M05/M07 A3029 RMK SC8 SLP289

TAF TAF CYPA
Valid from the 22 at 13:00 until the 23 at 01:00 UTC


221238Z 2213/2301 33008KT P6SM OVC025
TEMPO 2213/2301 5SM -SN OVC020
BECMG 2216/2218 30010KT RMK NXT FCST BY 221900Z
CZWG FIR / North America



MET'MAP, your aeronautical weather chart ! - Copyright ORBIFLY December 2007 - Disclaimer

ORBIFLY MET'MAP TEAM :

Programming & Development : Alexandra Zaïnal
Concept & original design : Baudouin d'Aumeries
Assistance for programming : Marc-Olivier Méhu
Technical & hardware support : Manuel Goepfert

Contact : metmap@orbifly.com




SOURCES & CREDITS :

   NOAA       Earth
Advisory